Time;durP1;ratioP1;P1;durP2;ratioP2;P2;SDS_P1;SDS_P2;PMS_P1;PMS_P2;Temp;Humidity;BMP_temperature;BMP_pressure;BME280_temperature;BME280_humidity;BME280_pressure;Samples;Min_cycle;Max_cycle;Signal;HPM_P1;HPM_P2
2023/08/31 00:02:06;;;;;;;0.20;0.20;;;9.10;99.90;;;;;;5103907;28;20071;-75
2023/08/31 00:04:32;;;;;;;1.95;0.70;;;9.10;99.90;;;;;;5106038;28;20075;-75
2023/08/31 00:06:58;;;;;;;0.00;0.00;;;9.20;99.90;;;;;;5106325;28;20521;-74
2023/08/31 00:09:24;;;;;;;0.30;0.20;;;9.20;99.90;;;;;;5106082;28;20040;-74
2023/08/31 00:11:50;;;;;;;0.00;0.00;;;9.20;99.90;;;;;;5113720;28;20069;-75
2023/08/31 00:14:17;;;;;;;0.05;0.05;;;9.30;99.90;;;;;;5106305;28;20107;-75
2023/08/31 00:16:45;;;;;;;0.10;0.10;;;9.30;99.90;;;;;;5106334;28;20044;-75
2023/08/31 00:19:11;;;;;;;0.00;0.00;;;9.40;99.90;;;;;;5103237;28;20051;-75
2023/08/31 00:21:37;;;;;;;0.80;0.45;;;9.50;99.90;;;;;;5102300;28;20036;-75
2023/08/31 00:24:03;;;;;;;0.30;0.30;;;9.50;99.90;;;;;;5107937;28;20097;-74
2023/08/31 00:26:30;;;;;;;0.00;0.00;;;9.60;99.90;;;;;;5105749;28;20051;-75
2023/08/31 00:28:57;;;;;;;0.00;0.00;;;9.60;99.90;;;;;;5105851;28;20048;-76
2023/08/31 00:31:22;;;;;;;0.00;0.00;;;9.60;99.90;;;;;;5102708;28;20032;-75
2023/08/31 00:33:48;;;;;;;0.00;0.00;;;9.60;99.90;;;;;;5109063;28;20038;-72
2023/08/31 00:36:14;;;;;;;0.10;0.10;;;9.60;99.90;;;;;;5107750;28;20482;-73
2023/08/31 00:38:40;;;;;;;0.15;0.03;;;9.60;99.90;;;;;;5105635;28;20051;-72
2023/08/31 00:41:05;;;;;;;0.00;0.00;;;9.60;99.90;;;;;;5098913;28;20041;-72
2023/08/31 00:43:32;;;;;;;0.10;0.10;;;9.60;99.90;;;;;;5107219;28;20420;-73
2023/08/31 00:45:58;;;;;;;0.05;0.03;;;9.50;99.90;;;;;;5108739;28;20389;-72
2023/08/31 00:48:24;;;;;;;0.28;0.22;;;9.50;99.90;;;;;;5101654;28;20439;-72
2023/08/31 00:50:51;;;;;;;0.00;0.00;;;9.40;99.90;;;;;;5104935;28;20520;-73
2023/08/31 00:53:17;;;;;;;0.00;0.00;;;9.30;99.90;;;;;;5096522;28;20462;-72
2023/08/31 00:55:44;;;;;;;0.05;0.05;;;9.30;99.90;;;;;;5106742;28;20453;-73
2023/08/31 00:58:10;;;;;;;0.00;0.00;;;9.20;99.90;;;;;;5108444;28;20063;-73
2023/08/31 01:00:58;;;;;;;0.25;0.25;;;9.10;99.90;;;;;;5103742;28;20553;-73
2023/08/31 01:03:53;;;;;;;0.00;0.00;;;9.10;99.90;;;;;;5108576;28;20064;-73
2023/08/31 01:06:46;;;;;;;0.00;0.00;;;9.00;99.90;;;;;;5097945;28;20069;-73
2023/08/31 01:09:27;;;;;;;0.00;0.00;;;8.90;99.90;;;;;;5098073;28;20044;-73
2023/08/31 01:12:11;;;;;;;0.15;0.15;;;8.70;99.90;;;;;;5101339;28;20051;-73
2023/08/31 01:14:48;;;;;;;0.55;0.55;;;8.70;99.90;;;;;;5104978;28;20047;-72
2023/08/31 01:17:15;;;;;;;0.20;0.20;;;8.60;99.90;;;;;;5096674;28;20056;-73
2023/08/31 01:19:55;;;;;;;0.00;0.00;;;8.60;99.90;;;;;;5111844;28;20118;-73
2023/08/31 01:22:40;;;;;;;0.00;0.00;;;8.60;99.90;;;;;;5083752;28;20035;-74
2023/08/31 01:25:08;;;;;;;0.00;0.00;;;8.50;99.90;;;;;;5106530;28;20095;-73
2023/08/31 01:27:35;;;;;;;0.00;0.00;;;8.40;99.90;;;;;;5104949;28;20040;-73
2023/08/31 01:30:05;;;;;;;0.22;0.22;;;8.30;99.90;;;;;;5105114;28;20052;-73
2023/08/31 01:32:34;;;;;;;0.00;0.00;;;8.30;99.90;;;;;;5096965;28;20101;-73
2023/08/31 01:35:01;;;;;;;0.00;0.00;;;8.20;99.90;;;;;;5104591;28;20032;-73
2023/08/31 01:37:29;;;;;;;0.00;0.00;;;8.20;99.90;;;;;;5107464;28;20044;-73
2023/08/31 01:40:10;;;;;;;0.32;0.20;;;8.10;99.90;;;;;;5088082;28;20045;-73
2023/08/31 01:42:37;;;;;;;3.08;0.70;;;8.10;99.90;;;;;;5096273;28;20047;-73
2023/08/31 01:45:05;;;;;;;0.00;0.00;;;8.10;99.90;;;;;;5104642;28;20036;-73
2023/08/31 01:47:31;;;;;;;0.03;0.03;;;8.10;99.90;;;;;;5104049;28;20390;-73
2023/08/31 01:49:57;;;;;;;0.00;0.00;;;8.10;99.90;;;;;;5104609;28;20402;-73
2023/08/31 01:52:22;;;;;;;0.28;0.22;;;8.10;99.90;;;;;;5103633;28;20050;-73
2023/08/31 01:54:48;;;;;;;0.00;0.00;;;8.40;99.90;;;;;;5107762;28;20028;-73
2023/08/31 01:57:14;;;;;;;2.40;1.17;;;8.20;99.90;;;;;;5107620;28;20101;-73
2023/08/31 01:59:39;;;;;;;0.10;0.10;;;8.20;99.90;;;;;;5105715;27;20039;-73
2023/08/31 02:02:05;;;;;;;0.43;0.43;;;8.20;99.90;;;;;;5101340;28;20040;-73
2023/08/31 02:04:31;;;;;;;0.00;0.00;;;8.20;99.90;;;;;;5103993;28;20039;-73
2023/08/31 02:06:56;;;;;;;0.00;0.00;;;8.10;99.90;;;;;;5106931;28;20039;-73
2023/08/31 02:09:22;;;;;;;0.00;0.00;;;8.10;99.90;;;;;;5107012;27;20043;-72
2023/08/31 02:11:48;;;;;;;0.00;0.00;;;8.10;99.90;;;;;;5102488;28;20035;-73
2023/08/31 02:14:14;;;;;;;0.00;0.00;;;8.10;99.90;;;;;;5102569;28;20052;-73
2023/08/31 02:16:39;;;;;;;0.32;0.32;;;8.00;99.90;;;;;;5103326;28;20040;-73
2023/08/31 02:19:05;;;;;;;0.10;0.10;;;8.00;99.90;;;;;;5105956;28;20079;-73
2023/08/31 02:21:30;;;;;;;0.00;0.00;;;8.00;99.90;;;;;;5102253;28;20461;-73
2023/08/31 02:23:56;;;;;;;0.00;0.00;;;8.00;99.90;;;;;;5105638;28;20031;-73
2023/08/31 02:26:22;;;;;;;0.00;0.00;;;8.10;99.90;;;;;;5103699;28;20036;-72
2023/08/31 02:28:48;;;;;;;0.20;0.15;;;8.10;99.90;;;;;;5103694;28;20402;-73
2023/08/31 02:31:14;;;;;;;0.03;0.03;;;8.20;99.90;;;;;;5105029;28;20044;-72
2023/08/31 02:33:40;;;;;;;0.00;0.00;;;8.30;99.90;;;;;;5100651;28;20040;-72
2023/08/31 02:36:05;;;;;;;0.00;0.00;;;8.30;99.90;;;;;;5111747;28;20363;-72
2023/08/31 02:38:32;;;;;;;0.05;0.05;;;8.30;99.90;;;;;;5102042;28;20040;-72
2023/08/31 02:40:57;;;;;;;0.00;0.00;;;8.30;99.90;;;;;;5105770;28;20035;-72
2023/08/31 02:43:23;;;;;;;0.00;0.00;;;8.30;99.90;;;;;;5102863;28;20046;-72
2023/08/31 02:45:49;;;;;;;0.00;0.00;;;8.30;99.90;;;;;;5099380;28;20486;-72
2023/08/31 02:48:14;;;;;;;0.05;0.05;;;8.20;99.90;;;;;;5106644;28;20036;-72
2023/08/31 02:50:40;;;;;;;0.05;0.05;;;8.10;99.90;;;;;;5099644;28;20036;-72
2023/08/31 02:53:06;;;;;;;0.00;0.00;;;8.30;99.90;;;;;;5106042;28;20386;-72
2023/08/31 02:55:34;;;;;;;0.08;0.05;;;8.30;99.90;;;;;;5104090;28;20075;-73
2023/08/31 02:58:01;;;;;;;0.00;0.00;;;8.30;99.90;;;;;;5102891;28;20483;-73
2023/08/31 03:00:28;;;;;;;0.32;0.32;;;8.30;99.90;;;;;;5098656;28;20498;-73
2023/08/31 03:02:53;;;;;;;0.00;0.00;;;8.40;99.90;;;;;;5105613;28;20481;-73
2023/08/31 03:05:21;;;;;;;0.00;0.00;;;8.40;99.90;;;;;;5106018;28;20047;-73
2023/08/31 03:07:47;;;;;;;0.10;0.10;;;8.40;99.90;;;;;;5104224;28;20407;-73
2023/08/31 03:10:13;;;;;;;0.00;0.00;;;8.50;99.90;;;;;;5085651;28;20059;-73
2023/08/31 03:12:39;;;;;;;0.00;0.00;;;8.50;99.90;;;;;;5102846;28;20048;-73
2023/08/31 03:15:07;;;;;;;1.67;0.20;;;8.50;99.90;;;;;;5105570;28;20101;-73
2023/08/31 03:17:32;;;;;;;0.38;0.22;;;8.40;99.90;;;;;;5107885;27;20464;-73
2023/08/31 03:19:58;;;;;;;0.00;0.00;;;8.40;99.90;;;;;;5103981;28;20048;-73
2023/08/31 03:22:23;;;;;;;0.00;0.00;;;8.40;99.90;;;;;;5085912;28;20115;-73
2023/08/31 03:24:49;;;;;;;0.00;0.00;;;8.40;99.90;;;;;;5105932;28;20040;-73
2023/08/31 03:27:16;;;;;;;0.10;0.10;;;8.40;99.90;;;;;;5102688;28;20051;-73
2023/08/31 03:29:41;;;;;;;0.00;0.00;;;8.40;99.90;;;;;;5102269;28;20114;-73
2023/08/31 03:32:07;;;;;;;0.17;0.17;;;8.40;99.90;;;;;;5083879;28;20037;-73
2023/08/31 03:34:33;;;;;;;0.20;0.13;;;8.60;99.90;;;;;;5105515;28;20023;-73
2023/08/31 03:36:59;;;;;;;0.00;0.00;;;8.50;99.90;;;;;;5098178;28;20127;-73
2023/08/31 03:39:25;;;;;;;0.10;0.10;;;8.60;99.90;;;;;;5104278;28;20418;-73
2023/08/31 03:41:51;;;;;;;0.20;0.20;;;8.70;99.90;;;;;;5100510;28;20050;-73
2023/08/31 03:44:17;;;;;;;0.00;0.00;;;8.80;99.90;;;;;;5104377;28;20055;-73
2023/08/31 03:46:43;;;;;;;0.00;0.00;;;8.90;99.90;;;;;;5101885;28;20036;-73
2023/08/31 03:49:09;;;;;;;0.10;0.10;;;9.00;99.90;;;;;;5102281;28;20043;-72
2023/08/31 03:51:34;;;;;;;1.75;1.10;;;9.10;99.90;;;;;;5102626;28;20036;-73
2023/08/31 03:54:00;;;;;;;0.05;0.05;;;9.20;99.90;;;;;;5105171;28;20065;-74
2023/08/31 03:56:26;;;;;;;0.00;0.00;;;9.30;99.90;;;;;;5104341;28;20035;-74
2023/08/31 03:58:52;;;;;;;0.20;0.20;;;9.30;99.90;;;;;;5100391;28;20109;-73
2023/08/31 04:01:18;;;;;;;0.00;0.00;;;9.40;99.90;;;;;;5104242;28;20122;-73
2023/08/31 04:03:43;;;;;;;0.00;0.00;;;9.40;99.90;;;;;;5102961;28;20115;-73
2023/08/31 04:06:09;;;;;;;0.52;0.32;;;9.40;99.90;;;;;;5099708;28;20043;-73
2023/08/31 04:08:35;;;;;;;0.65;0.40;;;9.30;99.90;;;;;;5105502;28;20044;-73
2023/08/31 04:11:01;;;;;;;0.10;0.10;;;9.30;99.90;;;;;;5097541;28;20088;-73
2023/08/31 04:13:26;;;;;;;0.00;0.00;;;9.20;99.90;;;;;;5104934;28;20123;-73
2023/08/31 04:15:55;;;;;;;0.10;0.10;;;9.20;99.90;;;;;;5096663;28;20082;-73
2023/08/31 04:18:21;;;;;;;3.03;0.90;;;9.10;99.90;;;;;;5101896;28;20060;-73
2023/08/31 04:20:52;;;;;;;0.20;0.20;;;9.10;99.90;;;;;;5097403;28;20386;-73
2023/08/31 04:23:18;;;;;;;0.10;0.10;;;9.10;99.90;;;;;;5093706;28;20382;-74
2023/08/31 04:25:45;;;;;;;0.00;0.00;;;9.20;99.90;;;;;;5078332;28;20067;-73
2023/08/31 04:28:10;;;;;;;0.35;0.35;;;9.20;99.90;;;;;;5089510;28;20065;-73
2023/08/31 04:30:36;;;;;;;0.43;0.43;;;9.30;99.90;;;;;;5101613;28;20148;-73
2023/08/31 04:33:04;;;;;;;0.10;0.10;;;9.30;99.90;;;;;;5101169;28;20040;-73
2023/08/31 04:35:31;;;;;;;0.10;0.00;;;9.30;99.90;;;;;;5108516;28;20050;-73
2023/08/31 04:37:57;;;;;;;0.10;0.10;;;9.40;99.90;;;;;;5101319;28;20089;-73
2023/08/31 04:40:23;;;;;;;0.35;0.35;;;9.40;99.90;;;;;;5101874;28;20068;-73
2023/08/31 04:42:48;;;;;;;0.35;0.35;;;9.40;99.90;;;;;;5096146;28;20128;-73
2023/08/31 04:45:14;;;;;;;0.10;0.10;;;9.30;99.90;;;;;;5101431;28;20036;-73
2023/08/31 04:47:40;;;;;;;0.10;0.10;;;9.30;99.90;;;;;;5105848;28;20075;-73
2023/08/31 04:50:06;;;;;;;0.35;0.35;;;9.30;99.90;;;;;;5108163;28;20040;-72
2023/08/31 04:52:32;;;;;;;0.13;0.10;;;9.30;99.90;;;;;;5106133;28;20119;-73
2023/08/31 04:54:58;;;;;;;0.30;0.30;;;9.20;99.90;;;;;;5107646;28;20067;-73
2023/08/31 04:57:24;;;;;;;0.00;0.00;;;9.20;99.90;;;;;;5101523;28;20082;-73
2023/08/31 04:59:49;;;;;;;0.22;0.22;;;9.20;99.90;;;;;;5079811;28;20039;-73
2023/08/31 05:02:15;;;;;;;0.52;0.43;;;9.20;99.90;;;;;;5105247;27;20402;-73
2023/08/31 05:04:41;;;;;;;0.05;0.05;;;9.20;99.90;;;;;;5100810;28;20513;-73
2023/08/31 05:07:07;;;;;;;0.10;0.10;;;9.30;99.90;;;;;;5104906;28;20493;-73
2023/08/31 05:09:34;;;;;;;0.30;0.30;;;9.30;99.90;;;;;;5104934;27;20052;-73
2023/08/31 05:12:02;;;;;;;0.10;0.10;;;9.40;99.90;;;;;;5097886;28;20047;-73
2023/08/31 05:14:28;;;;;;;0.10;0.10;;;9.40;99.90;;;;;;5099860;28;20071;-73
2023/08/31 05:16:54;;;;;;;0.63;0.63;;;9.50;99.90;;;;;;5102861;28;20126;-73
2023/08/31 05:19:19;;;;;;;0.70;0.70;;;9.60;99.90;;;;;;5099675;27;20417;-73
2023/08/31 05:21:45;;;;;;;0.95;0.68;;;9.60;99.90;;;;;;5101398;28;20039;-73
2023/08/31 05:24:11;;;;;;;2.67;1.30;;;9.60;99.90;;;;;;5105291;28;20040;-73
2023/08/31 05:26:36;;;;;;;0.50;0.50;;;9.60;99.90;;;;;;5108002;28;20055;-72
2023/08/31 05:29:03;;;;;;;0.80;0.70;;;9.70;99.90;;;;;;5105603;28;20036;-73
2023/08/31 05:31:29;;;;;;;1.45;0.52;;;9.80;99.90;;;;;;5104270;28;20036;-73
2023/08/31 05:33:55;;;;;;;0.10;0.10;;;9.80;99.90;;;;;;5104350;28;20445;-73
2023/08/31 05:36:21;;;;;;;2.47;0.95;;;9.90;99.90;;;;;;5105441;28;20043;-73
2023/08/31 05:38:46;;;;;;;1.20;1.10;;;10.00;99.90;;;;;;5107443;28;20122;-73
2023/08/31 05:41:12;;;;;;;0.08;0.08;;;10.00;99.90;;;;;;5106498;28;20040;-73
2023/08/31 05:43:41;;;;;;;0.52;0.40;;;10.00;99.90;;;;;;5103801;28;20398;-73
2023/08/31 05:46:08;;;;;;;0.43;0.28;;;10.10;99.90;;;;;;5101894;28;20067;-73
2023/08/31 05:48:34;;;;;;;0.08;0.00;;;10.20;99.90;;;;;;5104598;28;20051;-73
2023/08/31 05:51:00;;;;;;;0.55;0.55;;;10.30;99.90;;;;;;5105146;28;20122;-73
2023/08/31 05:53:25;;;;;;;0.00;0.00;;;10.30;99.90;;;;;;5104688;28;20208;-73
2023/08/31 05:55:51;;;;;;;0.00;0.00;;;10.40;99.90;;;;;;5102361;28;20082;-73
2023/08/31 05:58:16;;;;;;;0.00;0.00;;;10.50;99.90;;;;;;5101543;28;20482;-73
2023/08/31 06:00:42;;;;;;;0.35;0.25;;;10.50;99.90;;;;;;5105304;28;20123;-73
2023/08/31 06:03:08;;;;;;;0.17;0.10;;;10.60;99.90;;;;;;5107323;28;20127;-73
2023/08/31 06:05:35;;;;;;;0.43;0.40;;;10.70;99.90;;;;;;5106419;28;20126;-73
2023/08/31 06:08:00;;;;;;;0.98;0.68;;;10.80;99.90;;;;;;5103486;28;20052;-73
2023/08/31 06:10:26;;;;;;;0.45;0.35;;;10.80;99.90;;;;;;5104174;28;20524;-73
2023/08/31 06:12:51;;;;;;;0.88;0.47;;;10.90;99.90;;;;;;5105492;28;20098;-73
2023/08/31 06:15:17;;;;;;;0.30;0.30;;;11.10;99.90;;;;;;5107374;28;20047;-72
2023/08/31 06:17:43;;;;;;;0.45;0.20;;;11.90;99.90;;;;;;5106200;28;20035;-72
2023/08/31 06:20:10;;;;;;;0.98;0.90;;;12.70;99.90;;;;;;5102816;28;20112;-73
2023/08/31 06:22:35;;;;;;;0.10;0.10;;;13.10;99.90;;;;;;5102680;28;20035;-73
2023/08/31 06:25:04;;;;;;;0.00;0.00;;;13.50;99.90;;;;;;5104506;28;20143;-73
2023/08/31 06:27:30;;;;;;;0.20;0.20;;;13.80;99.90;;;;;;5101110;28;20051;-73
2023/08/31 06:29:56;;;;;;;0.65;0.55;;;14.10;99.90;;;;;;5098632;28;20058;-73
2023/08/31 06:32:21;;;;;;;1.73;0.52;;;14.40;99.90;;;;;;5088058;28;20040;-73
2023/08/31 06:34:47;;;;;;;0.05;0.05;;;14.60;99.90;;;;;;5097596;28;20498;-73
2023/08/31 06:37:13;;;;;;;0.40;0.22;;;14.70;99.90;;;;;;5103812;28;20433;-73
2023/08/31 06:39:39;;;;;;;0.28;0.13;;;15.10;99.90;;;;;;5105950;28;20043;-73
2023/08/31 06:42:04;;;;;;;0.10;0.10;;;15.40;99.90;;;;;;5105688;28;20461;-73
2023/08/31 06:44:30;;;;;;;0.10;0.10;;;15.80;99.90;;;;;;5102658;28;20036;-73
2023/08/31 06:46:56;;;;;;;0.10;0.10;;;16.10;99.90;;;;;;5102380;28;20131;-73
2023/08/31 06:49:23;;;;;;;0.20;0.20;;;15.90;99.90;;;;;;5102385;28;20114;-73
2023/08/31 06:51:49;;;;;;;0.25;0.20;;;16.10;99.90;;;;;;5101818;28;20486;-73
2023/08/31 06:54:14;;;;;;;0.25;0.13;;;16.00;39.00;;;;;;5102401;28;20124;-73
2023/08/31 06:56:40;;;;;;;0.00;0.00;;;15.90;1.00;;;;;;5101150;28;20126;-73
2023/08/31 06:59:06;;;;;;;0.00;0.00;;;16.00;1.00;;;;;;5097907;28;20486;-73
2023/08/31 07:01:35;;;;;;;0.55;0.45;;;16.30;99.90;;;;;;5102542;28;20096;-73
2023/08/31 07:04:00;;;;;;;0.10;0.10;;;16.40;99.90;;;;;;5097721;28;20037;-73
2023/08/31 07:06:26;;;;;;;1.27;0.93;;;16.50;99.90;;;;;;5088481;28;20046;-73
2023/08/31 07:08:52;;;;;;;0.05;0.03;;;16.60;1.00;;;;;;5101294;28;20032;-73
2023/08/31 07:11:18;;;;;;;0.17;0.10;;;16.90;1.00;;;;;;5101967;28;20121;-74
2023/08/31 07:13:43;;;;;;;0.00;0.00;;;16.90;99.90;;;;;;5102477;28;20414;-74
2023/08/31 07:16:09;;;;;;;0.10;0.10;;;17.00;99.90;;;;;;5105099;28;20118;-74
2023/08/31 07:18:36;;;;;;;0.30;0.17;;;17.40;99.90;;;;;;5104930;28;20050;-74
2023/08/31 07:21:04;;;;;;;5.38;0.15;;;17.90;99.90;;;;;;5102598;28;20071;-74
2023/08/31 07:23:30;;;;;;;0.13;0.10;;;18.10;38.30;;;;;;5101511;28;20075;-74
2023/08/31 07:26:00;;;;;;;0.00;0.00;;;18.50;99.90;;;;;;5102561;28;20082;-73
2023/08/31 07:28:26;;;;;;;0.00;0.00;;;18.60;1.00;;;;;;5104931;28;20051;-73
2023/08/31 07:31:04;;;;;;;0.10;0.10;;;18.80;1.00;;;;;;5104868;28;20043;-73
2023/08/31 07:33:32;;;;;;;0.00;0.00;;;19.00;1.00;;;;;;5094198;28;20119;-73
2023/08/31 07:35:58;;;;;;;0.00;0.00;;;19.10;1.00;;;;;;5101532;28;20044;-73
2023/08/31 07:38:24;;;;;;;0.10;0.10;;;19.20;1.00;;;;;;5104234;28;20040;-73
2023/08/31 07:40:50;;;;;;;0.00;0.00;;;18.90;99.90;;;;;;5104577;28;20044;-74
2023/08/31 07:43:16;;;;;;;0.00;0.00;;;18.70;99.90;;;;;;5103470;28;20387;-73
2023/08/31 07:45:41;;;;;;;0.10;0.03;;;18.40;54.30;;;;;;5101616;28;20032;-73
2023/08/31 07:48:07;;;;;;;0.00;0.00;;;18.50;66.90;;;;;;5101610;28;20047;-73
2023/08/31 07:50:34;;;;;;;0.00;0.00;;;18.90;37.10;;;;;;5103971;28;20554;-73
2023/08/31 07:53:00;;;;;;;0.00;0.00;;;19.30;1.00;;;;;;5104541;28;20082;-73
2023/08/31 07:55:25;;;;;;;0.20;0.20;;;19.70;97.10;;;;;;5103733;28;20067;-74
2023/08/31 07:57:51;;;;;;;0.00;0.00;;;20.30;99.90;;;;;;5101092;28;20040;-74
2023/08/31 08:00:18;;;;;;;0.70;0.20;;;20.40;1.00;;;;;;5100888;28;20097;-74
2023/08/31 08:02:45;;;;;;;0.00;0.00;;;20.70;99.90;;;;;;5103636;28;20083;-74
2023/08/31 08:05:11;;;;;;;0.00;0.00;;;20.90;1.00;;;;;;5103187;28;20039;-74
2023/08/31 08:07:36;;;;;;;0.00;0.00;;;21.30;1.00;;;;;;5100760;28;20108;-74
2023/08/31 08:10:02;;;;;;;0.30;0.22;;;21.40;99.90;;;;;;5089058;28;20410;-74
2023/08/31 08:12:39;;;;;;;1.08;0.22;;;21.40;99.90;;;;;;5095760;28;20147;-74
2023/08/31 08:15:09;;;;;;;0.98;0.80;;;21.10;99.90;;;;;;5084035;28;20039;-75
2023/08/31 08:17:35;;;;;;;0.00;0.00;;;21.10;99.90;;;;;;5101231;28;20050;-74
2023/08/31 08:20:01;;;;;;;0.32;0.30;;;21.50;99.90;;;;;;5098693;28;20043;-74
2023/08/31 08:22:27;;;;;;;0.00;0.00;;;21.80;99.90;;;;;;5095660;28;20087;-75
2023/08/31 08:24:52;;;;;;;0.00;0.00;;;21.60;99.90;;;;;;5104968;28;20040;-75
2023/08/31 08:27:18;;;;;;;0.00;0.00;;;21.60;89.90;;;;;;5102063;28;20475;-74
2023/08/31 08:29:45;;;;;;;0.35;0.28;;;21.40;65.30;;;;;;5101752;28;20040;-75
2023/08/31 08:32:10;;;;;;;0.00;0.00;;;21.40;99.90;;;;;;5103433;28;20491;-74
2023/08/31 08:34:36;;;;;;;0.47;0.30;;;21.20;56.20;;;;;;5099772;28;20082;-74
2023/08/31 08:37:03;;;;;;;0.47;0.43;;;20.80;88.90;;;;;;5102029;28;20538;-74
2023/08/31 08:39:34;;;;;;;0.08;0.08;;;20.80;98.30;;;;;;5104916;28;20527;-74
2023/08/31 08:42:05;;;;;;;1.02;0.20;;;21.00;99.90;;;;;;5086366;28;20078;-75
2023/08/31 08:44:33;;;;;;;0.00;0.00;;;21.70;99.90;;;;;;5100134;28;20497;-75
2023/08/31 08:47:00;;;;;;;3.60;0.68;;;22.40;99.90;;;;;;5101366;28;20084;-73
2023/08/31 08:49:26;;;;;;;0.00;0.00;;;22.40;29.50;;;;;;5103241;28;20044;-75
2023/08/31 08:51:53;;;;;;;0.22;0.22;;;21.60;19.90;;;;;;5104749;28;20043;-75
2023/08/31 08:54:19;;;;;;;0.30;0.30;;;21.40;34.60;;;;;;5104779;28;20071;-75
2023/08/31 08:56:45;;;;;;;0.00;0.00;;;21.20;64.50;;;;;;5093073;28;20112;-75
2023/08/31 08:59:13;;;;;;;0.00;0.00;;;21.80;85.30;;;;;;5101426;28;20043;-76
2023/08/31 09:01:39;;;;;;;0.00;0.00;;;21.90;38.40;;;;;;5102871;28;20059;-72
2023/08/31 09:04:06;;;;;;;0.00;0.00;;;22.20;75.90;;;;;;5104354;28;20119;-73
2023/08/31 09:06:32;;;;;;;0.00;0.00;;;22.00;1.00;;;;;;5104231;28;20132;-73
2023/08/31 09:08:58;;;;;;;1.15;0.28;;;21.30;1.00;;;;;;5100694;28;20044;-74
2023/08/31 09:11:24;;;;;;;0.00;0.00;;;20.70;1.00;;;;;;5100782;28;20058;-73
2023/08/31 09:13:51;;;;;;;0.00;0.00;;;20.70;50.40;;;;;;5102425;28;20056;-73
2023/08/31 09:16:28;;;;;;;0.17;0.10;;;21.10;1.00;;;;;;5104456;28;20055;-73
2023/08/31 09:18:57;;;;;;;0.10;0.10;;;20.80;1.00;;;;;;5102827;28;20431;-73
2023/08/31 09:21:35;;;;;;;0.30;0.28;;;20.10;1.00;;;;;;5100670;28;20072;-73
2023/08/31 09:24:02;;;;;;;0.00;0.00;;;19.80;1.00;;;;;;5101534;28;20509;-74
2023/08/31 09:26:28;;;;;;;0.90;0.32;;;19.60;1.00;;;;;;5102231;28;20051;-73
2023/08/31 09:28:53;;;;;;;0.00;0.00;;;19.00;1.00;;;;;;5100988;28;20410;-74
2023/08/31 09:31:19;;;;;;;0.00;0.00;;;17.30;1.00;;;;;;5102802;28;20464;-75
2023/08/31 09:33:51;;;;;;;0.10;0.10;;;14.80;99.90;;;;;;5103665;28;20039;-74
2023/08/31 09:36:19;;;;;;;0.00;0.00;;;13.40;96.70;;;;;;5102810;28;20051;-74
2023/08/31 09:38:45;;;;;;;0.30;0.30;;;12.90;99.90;;;;;;5104158;28;20185;-74
2023/08/31 09:41:11;;;;;;;0.00;0.00;;;12.60;36.00;;;;;;5102512;28;20123;-74
2023/08/31 09:43:37;;;;;;;0.00;0.00;;;12.50;99.90;;;;;;5098615;28;20504;-73
2023/08/31 09:46:04;;;;;;;0.00;0.00;;;12.50;99.90;;;;;;5097390;28;20127;-74
2023/08/31 09:48:31;;;;;;;0.00;0.00;;;12.70;99.90;;;;;;5102647;28;20047;-74
2023/08/31 09:50:57;;;;;;;0.00;0.00;;;13.40;99.90;;;;;;5102073;28;20051;-74
2023/08/31 09:53:28;;;;;;;0.00;0.00;;;14.30;1.00;;;;;;5100997;28;20047;-74
2023/08/31 09:55:56;;;;;;;0.05;0.05;;;14.80;1.00;;;;;;5103523;28;20050;-74
2023/08/31 09:58:22;;;;;;;0.00;0.00;;;14.80;1.00;;;;;;5103203;28;20122;-74
2023/08/31 10:00:52;;;;;;;0.00;0.00;;;14.70;1.00;;;;;;5098802;28;20197;-74
2023/08/31 10:03:17;;;;;;;0.00;0.00;;;14.70;1.00;;;;;;5099796;28;20476;-74
2023/08/31 10:05:44;;;;;;;0.00;0.00;;;15.00;75.10;;;;;;5102368;28;20209;-74
2023/08/31 10:08:11;;;;;;;0.00;0.00;;;15.40;99.90;;;;;;5102960;28;20047;-74
2023/08/31 10:10:37;;;;;;;0.00;0.00;;;15.70;99.90;;;;;;5102563;28;20051;-74
2023/08/31 10:13:05;;;;;;;0.13;0.13;;;16.10;99.90;;;;;;5099520;28;20455;-74
2023/08/31 10:15:35;;;;;;;0.00;0.00;;;16.70;99.90;;;;;;5099487;28;20059;-74
2023/08/31 10:18:02;;;;;;;2.80;1.02;;;17.10;99.90;;;;;;5102392;28;20395;-75
2023/08/31 10:20:31;;;;;;;0.20;0.20;;;17.20;99.90;;;;;;5103007;28;20043;-74
2023/08/31 10:23:07;;;;;;;0.00;0.00;;;17.10;99.90;;;;;;5101176;28;20092;-74
2023/08/31 10:25:50;;;;;;;0.00;0.00;;;16.30;99.90;;;;;;5099347;28;20055;-75
2023/08/31 10:28:24;;;;;;;0.00;0.00;;;15.90;1.00;;;;;;5102374;28;20055;-75
2023/08/31 10:31:03;;;;;;;0.00;0.00;;;15.60;40.40;;;;;;5101613;28;20405;-75
2023/08/31 10:33:34;;;;;;;0.00;0.00;;;15.50;82.00;;;;;;5092380;28;20067;-75
2023/08/31 10:36:01;;;;;;;0.00;0.00;;;15.50;99.90;;;;;;5099460;28;20048;-74
2023/08/31 10:38:33;;;;;;;0.00;0.00;;;15.60;99.90;;;;;;5102252;27;20081;-74
2023/08/31 10:41:08;;;;;;;0.00;0.00;;;15.80;99.90;;;;;;5104329;28;20382;-74
2023/08/31 10:43:51;;;;;;;0.00;0.00;;;16.20;99.90;;;;;;5094197;28;20055;-74
2023/08/31 10:46:32;;;;;;;0.00;0.00;;;16.30;99.90;;;;;;5102941;28;20479;-74
2023/08/31 10:49:10;;;;;;;0.00;0.00;;;16.20;35.60;;;;;;5105299;28;20090;-75
2023/08/31 10:51:37;;;;;;;0.00;0.00;;;16.40;99.90;;;;;;5100645;28;20473;-75
2023/08/31 10:54:25;;;;;;;0.17;0.15;;;16.80;99.90;;;;;;5100193;28;20078;-75
2023/08/31 10:56:57;;;;;;;0.00;0.00;;;16.80;99.90;;;;;;5092837;28;20044;-75
2023/08/31 10:59:24;;;;;;;0.52;0.05;;;16.80;99.90;;;;;;5100005;28;20044;-75
2023/08/31 11:02:02;;;;;;;0.00;0.00;;;17.10;99.90;;;;;;5102826;27;20032;-75
2023/08/31 11:04:29;;;;;;;0.00;0.00;;;17.30;1.00;;;;;;5103277;28;20534;-75
2023/08/31 11:07:17;;;;;;;0.10;0.10;;;17.40;85.00;;;;;;5101274;28;20028;-75
2023/08/31 11:09:44;;;;;;;0.00;0.00;;;17.40;99.90;;;;;;5103077;28;20051;-74
2023/08/31 11:12:10;;;;;;;0.00;0.00;;;17.40;99.90;;;;;;5104637;28;20047;-74
2023/08/31 11:14:36;;;;;;;0.45;0.45;;;17.50;1.00;;;;;;5105241;28;20046;-74
2023/08/31 11:17:04;;;;;;;0.00;0.00;;;17.80;99.90;;;;;;5101680;28;20044;-74
2023/08/31 11:19:31;;;;;;;0.95;0.30;;;18.00;99.90;;;;;;5102010;28;20044;-74
2023/08/31 11:21:57;;;;;;;0.10;0.10;;;18.30;99.90;;;;;;5103313;28;20079;-74
2023/08/31 11:24:22;;;;;;;0.00;0.00;;;18.60;99.90;;;;;;5104831;28;20375;-74
2023/08/31 11:26:50;;;;;;;0.28;0.28;;;18.90;1.00;;;;;;5104820;28;20035;-74
2023/08/31 11:29:16;;;;;;;1.35;0.63;;;19.20;25.00;;;;;;5101707;28;20161;-74
2023/08/31 11:31:41;;;;;;;0.00;0.00;;;18.80;1.00;;;;;;5101500;28;20159;-74
2023/08/31 11:34:12;;;;;;;0.00;0.00;;;18.70;57.50;;;;;;5102914;28;20402;-74
2023/08/31 11:36:38;;;;;;;0.13;0.10;;;19.00;65.80;;;;;;5104433;28;20036;-74
2023/08/31 11:39:03;;;;;;;0.10;0.10;;;19.50;1.00;;;;;;5104365;28;20036;-74
2023/08/31 11:41:36;;;;;;;0.00;0.00;;;20.30;99.90;;;;;;5104890;28;20274;-74
2023/08/31 11:44:04;;;;;;;0.35;0.15;;;21.00;93.40;;;;;;5104684;28;20096;-74
2023/08/31 11:46:31;;;;;;;0.00;0.00;;;21.10;1.00;;;;;;5095697;28;20040;-74
2023/08/31 11:48:58;;;;;;;0.00;0.00;;;21.00;99.90;;;;;;5104739;28;20049;-74
2023/08/31 12:23:10;;;;;;;;;;;22.80;21.20;;;;;;5165519;27;20448;-73
2023/08/31 12:25:35;;;;;;;0.15;0.15;;;24.60;1.00;;;;;;5156633;27;20381;-73
2023/08/31 12:28:02;;;;;;;0.10;0.10;;;23.80;1.00;;;;;;5150374;27;20035;-73
2023/08/31 12:30:28;;;;;;;0.00;0.00;;;22.30;99.90;;;;;;5153854;27;20062;-73
2023/08/31 12:32:53;;;;;;;0.00;0.00;;;21.70;1.00;;;;;;5158496;27;20516;-73
2023/08/31 12:35:19;;;;;;;2.03;0.55;;;20.80;1.00;;;;;;5168688;27;20050;-73
2023/08/31 12:37:45;;;;;;;0.05;0.05;;;20.00;1.00;;;;;;5153128;27;20126;-74
2023/08/31 12:40:11;;;;;;;0.00;0.00;;;19.60;1.00;;;;;;5147530;27;20047;-73
2023/08/31 12:42:37;;;;;;;0.35;0.30;;;19.20;1.00;;;;;;5147757;27;20047;-73
2023/08/31 12:45:05;;;;;;;0.10;0.10;;;18.90;1.00;;;;;;5147885;27;20031;-73
2023/08/31 12:47:31;;;;;;;0.00;0.00;;;18.60;1.00;;;;;;5155623;27;20039;-74
2023/08/31 12:49:57;;;;;;;0.00;0.00;;;19.00;1.00;;;;;;5150038;27;20103;-74
2023/08/31 12:52:24;;;;;;;0.28;0.05;;;18.90;1.00;;;;;;5158060;27;20043;-74
2023/08/31 12:54:49;;;;;;;0.03;0.03;;;19.00;1.00;;;;;;5147656;27;20448;-74
2023/08/31 12:57:15;;;;;;;0.00;0.00;;;19.70;1.00;;;;;;5147690;27;20053;-74
2023/08/31 12:59:41;;;;;;;0.05;0.05;;;21.00;95.90;;;;;;5147773;27;20050;-74
2023/08/31 13:02:10;;;;;;;0.00;0.00;;;21.90;1.00;;;;;;5147785;27;20408;-74
2023/08/31 13:04:36;;;;;;;0.00;0.00;;;22.20;1.00;;;;;;5147548;27;20126;-74
2023/08/31 13:07:01;;;;;;;0.32;0.25;;;22.00;1.00;;;;;;5147537;27;20106;-74
2023/08/31 13:09:27;;;;;;;2.28;0.95;;;21.30;1.00;;;;;;5147329;27;20493;-74
2023/08/31 13:11:53;;;;;;;0.17;0.00;;;20.60;1.00;;;;;;5146901;27;20528;-74
2023/08/31 13:14:19;;;;;;;0.00;0.00;;;20.50;1.00;;;;;;5156213;27;20035;-74
2023/08/31 13:16:44;;;;;;;0.00;0.00;;;20.90;37.50;;;;;;5157190;27;20390;-74
2023/08/31 13:19:10;;;;;;;1.45;0.25;;;22.00;38.40;;;;;;5159023;27;20027;-74
2023/08/31 13:21:35;;;;;;;0.85;0.52;;;23.00;14.50;;;;;;5161783;27;20055;-75
2023/08/31 13:24:01;;;;;;;0.00;0.00;;;23.80;1.00;;;;;;5143952;27;20051;-74
2023/08/31 13:26:27;;;;;;;0.00;0.00;;;23.70;1.00;;;;;;5142076;27;20031;-74